Time;durP1;ratioP1;P1;durP2;ratioP2;P2;SDS_P1;SDS_P2;PMS_P1;PMS_P2;Temp;Humidity;BMP_temperature;BMP_pressure;BME280_temperature;BME280_humidity;BME280_pressure;Samples;Min_cycle;Max_cycle;Signal;HPM_P1;HPM_P2
2023/05/03 00:00:31;;;;;;;5.93;2.42;;;2.60;99.90;;;2.65;100.00;102048.38;5082799;28;20067;-73
2023/05/03 00:02:57;;;;;;;7.05;2.90;;;2.60;99.90;;;2.49;100.00;102046.13;5088038;28;20477;-73
2023/05/03 00:05:25;;;;;;;4.45;2.40;;;2.50;99.90;;;2.38;100.00;102045.16;5067880;28;20036;-73
2023/05/03 00:07:51;;;;;;;8.27;2.97;;;2.40;99.90;;;2.29;100.00;102048.66;5064651;28;20041;-73
2023/05/03 00:10:16;;;;;;;12.02;2.85;;;2.30;99.90;;;2.27;100.00;102051.50;5056030;28;20036;-73
2023/05/03 00:12:43;;;;;;;8.73;2.60;;;2.30;99.90;;;2.29;100.00;102054.91;5089102;28;20036;-73
2023/05/03 00:15:09;;;;;;;6.47;3.08;;;2.30;99.90;;;2.26;100.00;102049.78;5078560;28;20391;-73
2023/05/03 00:17:36;;;;;;;6.80;2.85;;;2.30;99.90;;;2.17;100.00;102047.00;5087709;28;20039;-73
2023/05/03 00:20:04;;;;;;;6.68;3.08;;;2.20;99.90;;;2.01;100.00;102049.09;5056563;28;20452;-73
2023/05/03 00:22:31;;;;;;;6.85;3.28;;;2.10;99.90;;;1.99;100.00;102052.91;5071796;28;20111;-73
2023/05/03 00:24:58;;;;;;;7.78;3.05;;;2.00;99.90;;;1.99;100.00;102042.13;5083760;28;20055;-73
2023/05/03 00:27:24;;;;;;;9.13;3.10;;;2.10;99.90;;;2.06;100.00;102050.56;5054423;28;20044;-73
2023/05/03 00:29:53;;;;;;;7.47;3.00;;;2.10;99.90;;;1.97;100.00;102054.84;5058219;28;20493;-73
2023/05/03 00:32:21;;;;;;;9.23;3.13;;;2.00;99.90;;;1.99;100.00;102048.38;5060067;28;20024;-74
2023/05/03 00:34:55;;;;;;;8.55;2.88;;;2.10;99.90;;;2.00;100.00;102051.91;5054822;28;20032;-73
2023/05/03 00:37:23;;;;;;;7.65;3.20;;;2.10;99.90;;;2.06;100.00;102056.78;5086188;28;20057;-73
2023/05/03 00:39:48;;;;;;;10.27;3.65;;;2.10;99.90;;;1.94;100.00;102053.25;5071610;28;20070;-73
2023/05/03 00:42:14;;;;;;;6.63;2.95;;;2.00;99.90;;;1.90;100.00;102051.81;5055298;28;20031;-73
2023/05/03 00:44:40;;;;;;;8.63;3.15;;;2.00;99.90;;;1.96;100.00;102054.00;5090257;28;20444;-73
2023/05/03 00:47:07;;;;;;;6.38;3.10;;;2.00;99.90;;;1.99;100.00;102053.75;5089462;28;20028;-73
2023/05/03 00:49:33;;;;;;;7.43;3.50;;;2.00;99.90;;;1.91;100.00;102055.38;5087416;28;20101;-73
2023/05/03 00:51:58;;;;;;;6.43;3.10;;;2.00;99.90;;;1.71;100.00;102047.91;5089372;28;20496;-74
2023/05/03 00:54:29;;;;;;;4.78;3.00;;;1.80;99.90;;;1.58;100.00;102042.66;5067897;28;20047;-74
2023/05/03 00:56:55;;;;;;;9.95;3.80;;;1.70;99.90;;;1.63;100.00;102055.75;5103821;28;20036;-73
2023/05/03 00:59:21;;;;;;;7.45;3.60;;;1.70;99.90;;;1.60;100.00;102041.72;5083424;28;20048;-72
2023/05/03 01:01:51;;;;;;;13.95;3.90;;;1.70;99.90;;;1.67;100.00;102042.91;5092926;28;20068;-73
2023/05/03 01:04:19;;;;;;;7.57;3.83;;;1.60;99.90;;;1.61;100.00;102049.63;5081142;28;20047;-74
2023/05/03 01:07:03;;;;;;;6.20;3.70;;;1.60;99.90;;;1.47;100.00;102044.53;5075726;28;20376;-73
2023/05/03 01:10:00;;;;;;;7.90;3.10;;;1.50;99.90;;;1.33;100.00;102048.31;5081665;28;20037;-73
2023/05/03 01:13:05;;;;;;;5.70;3.67;;;1.40;99.90;;;1.42;100.00;102047.56;5085049;28;20033;-73
2023/05/03 01:15:48;;;;;;;9.20;3.53;;;1.40;99.90;;;1.35;100.00;102054.44;5058635;28;20037;-73
2023/05/03 01:18:22;;;;;;;11.27;3.97;;;1.30;99.90;;;1.40;100.00;102046.84;5064658;28;20032;-73
2023/05/03 01:20:52;;;;;;;10.23;4.10;;;1.40;99.90;;;1.38;100.00;102044.25;5075139;28;20059;-73
2023/05/03 01:23:48;;;;;;;10.90;3.92;;;1.40;99.90;;;1.26;100.00;102046.09;5093424;28;20024;-73
2023/05/03 01:26:26;;;;;;;8.07;3.75;;;1.30;99.90;;;1.23;100.00;102054.41;5061971;28;20051;-74
2023/05/03 01:28:53;;;;;;;10.88;4.32;;;1.20;99.90;;;1.16;100.00;102047.81;5041159;28;20044;-73
2023/05/03 01:31:43;;;;;;;9.13;4.18;;;1.20;99.90;;;1.20;100.00;102053.81;5058118;28;20057;-73
2023/05/03 01:34:26;;;;;;;6.43;3.30;;;1.20;99.90;;;1.09;100.00;102047.41;5079699;28;20035;-73
2023/05/03 01:36:58;;;;;;;9.77;4.47;;;1.20;99.90;;;1.15;100.00;102056.84;5041301;28;20499;-73
2023/05/03 01:39:35;;;;;;;7.45;3.78;;;1.20;99.90;;;1.04;100.00;102044.25;5090975;28;20036;-73
2023/05/03 01:42:03;;;;;;;8.90;3.95;;;1.10;99.90;;;0.94;100.00;102052.16;5068703;28;20135;-73
2023/05/03 01:44:31;;;;;;;7.72;3.83;;;1.00;99.90;;;0.89;100.00;102042.72;5074042;28;20036;-73
2023/05/03 01:46:57;;;;;;;8.85;3.83;;;1.00;99.90;;;0.90;100.00;102049.81;5062587;28;20490;-73
2023/05/03 01:49:23;;;;;;;9.60;4.28;;;1.00;99.90;;;0.89;100.00;102054.34;5078694;28;20028;-73
2023/05/03 01:51:48;;;;;;;9.75;4.82;;;1.00;99.90;;;0.83;100.00;102053.00;5088251;28;20046;-73
2023/05/03 01:54:15;;;;;;;8.57;4.07;;;0.90;99.90;;;0.82;100.00;102055.81;5093512;28;20024;-73
2023/05/03 01:56:40;;;;;;;10.70;4.70;;;0.90;99.90;;;0.64;100.00;102048.16;5091678;28;20583;-73
2023/05/03 01:59:06;;;;;;;8.13;4.30;;;0.80;99.90;;;0.61;100.00;102061.84;5074403;28;20135;-73
2023/05/03 02:01:32;;;;;;;9.70;4.55;;;0.70;99.90;;;0.63;100.00;102059.91;5074572;28;20035;-73
2023/05/03 02:03:58;;;;;;;12.57;4.95;;;0.70;99.90;;;0.66;100.00;102066.84;5080671;28;20039;-73
2023/05/03 02:06:27;;;;;;;11.35;4.97;;;0.70;99.90;;;0.66;100.00;102066.84;5084443;28;20039;-73
2023/05/03 02:08:53;;;;;;;11.93;5.25;;;0.70;99.90;;;0.63;100.00;102064.41;5081013;28;20142;-73
2023/05/03 02:11:20;;;;;;;9.93;5.30;;;0.70;99.90;;;0.56;100.00;102064.03;5064300;28;20499;-73
2023/05/03 02:13:48;;;;;;;7.18;4.18;;;0.70;99.90;;;0.41;100.00;102056.13;5082842;28;20036;-73
2023/05/03 02:16:19;;;;;;;12.32;5.00;;;0.60;99.90;;;0.40;100.00;102070.53;5062659;28;20471;-73
2023/05/03 02:18:44;;;;;;;8.77;4.50;;;0.60;99.90;;;0.32;100.00;102066.72;5087626;28;20535;-73
2023/05/03 02:21:10;;;;;;;12.15;5.32;;;0.50;99.90;;;0.29;100.00;102075.88;5080952;28;20097;-73
2023/05/03 02:23:36;;;;;;;9.90;4.40;;;0.40;99.90;;;0.21;100.00;102062.13;5080139;28;20051;-72
2023/05/03 02:26:02;;;;;;;8.75;4.50;;;0.40;99.90;;;0.16;100.00;102073.22;5056289;28;20032;-73
2023/05/03 02:28:27;;;;;;;9.13;4.72;;;0.30;99.90;;;0.02;100.00;102079.63;5084501;28;20395;-72
2023/05/03 02:30:54;;;;;;;8.35;4.45;;;0.10;99.90;;;-0.04;100.00;102080.03;5091345;28;20701;-73
2023/05/03 02:33:20;;;;;;;10.38;4.50;;;0.10;99.90;;;-0.07;100.00;102075.78;5086715;28;20488;-73
2023/05/03 02:35:46;;;;;;;10.95;4.72;;;0.00;99.90;;;-0.18;100.00;102076.56;5060793;28;20107;-73
2023/05/03 02:38:12;;;;;;;9.77;4.25;;;-0.10;99.90;;;-0.17;100.00;102083.63;5060575;28;20130;-73
2023/05/03 02:40:38;;;;;;;10.65;4.63;;;-0.10;99.90;;;-0.29;100.00;102068.41;5081878;28;20039;-73
2023/05/03 02:43:04;;;;;;;10.30;5.07;;;-0.10;99.90;;;-0.24;100.00;102082.38;5067022;28;20041;-74
2023/05/03 02:45:30;;;;;;;9.05;4.30;;;-0.20;99.90;;;-0.16;100.00;102085.34;5070664;28;20037;-74
2023/05/03 02:47:57;;;;;;;9.50;5.28;;;-0.10;99.90;;;-0.08;100.00;102089.28;5062641;28;20044;-73
2023/05/03 02:50:26;;;;;;;11.07;5.75;;;0.00;99.90;;;0.04;100.00;102085.72;5058425;28;20396;-73
2023/05/03 02:52:51;;;;;;;13.07;6.18;;;0.20;99.90;;;-0.03;100.00;102079.06;5059506;28;20127;-73
2023/05/03 02:55:17;;;;;;;14.68;6.00;;;0.10;99.90;;;-0.06;100.00;102080.16;5063184;28;20039;-73
2023/05/03 02:57:44;;;;;;;14.10;6.60;;;0.00;99.90;;;0.01;100.00;102085.97;5087516;28;20503;-73
2023/05/03 03:00:14;;;;;;;12.55;6.03;;;0.10;99.90;;;0.06;100.00;102080.22;5057317;28;20289;-73
2023/05/03 03:02:40;;;;;;;17.58;7.28;;;0.10;99.90;;;0.27;100.00;102070.59;5085291;28;20040;-73
2023/05/03 03:05:07;;;;;;;16.17;7.00;;;0.40;99.90;;;0.27;100.00;102080.50;5087358;28;20070;-73
2023/05/03 03:07:35;;;;;;;12.68;7.70;;;0.40;99.90;;;0.34;100.00;102086.25;5055993;28;20033;-73
2023/05/03 03:10:02;;;;;;;17.67;7.50;;;0.40;99.90;;;0.41;100.00;102076.78;5039251;28;20033;-73
2023/05/03 03:12:29;;;;;;;18.00;7.90;;;0.50;99.90;;;0.70;100.00;102082.63;5071025;28;20038;-73
2023/05/03 03:14:58;;;;;;;15.02;7.85;;;0.70;99.90;;;0.71;100.00;102076.28;5070242;28;20050;-73
2023/05/03 03:17:23;;;;;;;17.17;8.25;;;0.80;99.90;;;0.81;100.00;102072.91;5064321;28;20032;-73
2023/05/03 03:19:49;;;;;;;18.85;7.93;;;0.90;99.90;;;1.05;100.00;102074.66;5059305;28;20033;-73
2023/05/03 03:22:15;;;;;;;15.93;7.78;;;1.10;99.90;;;0.92;100.00;102075.63;5081147;28;20359;-73
2023/05/03 03:24:41;;;;;;;15.52;7.90;;;1.00;99.90;;;0.82;100.00;102080.84;5054760;28;20043;-73
2023/05/03 03:27:07;;;;;;;16.13;7.75;;;0.90;99.90;;;0.82;100.00;102080.84;5078928;28;20034;-74
2023/05/03 03:29:35;;;;;;;14.82;7.25;;;1.00;99.90;;;0.79;100.00;102085.56;5091138;28;20063;-73
2023/05/03 03:32:02;;;;;;;19.27;6.95;;;0.90;99.90;;;0.73;100.00;102081.53;5055531;28;20044;-73
2023/05/03 03:34:28;;;;;;;14.20;6.97;;;0.80;99.90;;;0.64;100.00;102087.59;5055184;28;20109;-73
2023/05/03 03:36:54;;;;;;;17.58;7.40;;;0.70;99.90;;;0.52;100.00;102092.94;5081544;28;20053;-73
2023/05/03 03:39:20;;;;;;;18.35;7.90;;;0.60;99.90;;;0.40;100.00;102083.97;5054342;28;20036;-73
2023/05/03 03:41:47;;;;;;;13.85;7.28;;;0.50;99.90;;;0.37;100.00;102088.69;5056254;28;20113;-73
2023/05/03 03:44:13;;;;;;;10.95;7.32;;;0.40;99.90;;;0.30;100.00;102091.00;5072191;28;20093;-73
2023/05/03 03:46:39;;;;;;;15.23;6.60;;;0.30;99.90;;;0.16;100.00;102085.78;5075086;28;20037;-73
2023/05/03 03:49:06;;;;;;;19.90;7.25;;;0.20;99.90;;;0.22;100.00;102091.56;5058491;28;20111;-73
2023/05/03 03:51:32;;;;;;;16.08;7.38;;;0.20;99.90;;;0.30;100.00;102079.41;5083096;28;20127;-73
2023/05/03 03:53:59;;;;;;;14.18;7.57;;;0.30;99.90;;;0.31;100.00;102081.09;5083854;28;20515;-73
2023/05/03 03:56:28;;;;;;;17.23;7.07;;;0.30;99.90;;;0.35;100.00;102088.81;5073298;28;20032;-74
2023/05/03 03:58:55;;;;;;;20.08;8.65;;;0.30;99.90;;;0.43;100.00;102091.78;5064794;28;20028;-73
2023/05/03 04:01:21;;;;;;;17.27;6.80;;;0.40;99.90;;;0.35;100.00;102088.81;5082365;28;20490;-73
2023/05/03 04:03:47;;;;;;;13.75;6.80;;;0.30;99.90;;;0.38;100.00;102090.41;5056063;28;20567;-73
2023/05/03 04:06:13;;;;;;;18.52;7.03;;;0.40;99.90;;;0.40;100.00;102094.72;5056221;28;20021;-73
2023/05/03 04:08:40;;;;;;;15.98;7.25;;;0.40;99.90;;;0.47;100.00;102091.56;5054273;28;20036;-73
2023/05/03 04:11:13;;;;;;;15.13;7.90;;;0.50;99.90;;;0.56;100.00;102093.56;5056238;28;20386;-73
2023/05/03 04:13:46;;;;;;;17.35;7.60;;;0.60;99.90;;;0.66;100.00;102091.03;5054716;28;20043;-73
2023/05/03 04:16:11;;;;;;;13.15;7.30;;;0.70;99.90;;;0.65;100.00;102086.63;5087753;28;20024;-73
2023/05/03 04:18:39;;;;;;;13.45;7.07;;;0.70;99.90;;;0.71;100.00;102086.19;5056648;28;20119;-73
2023/05/03 04:21:06;;;;;;;17.27;7.88;;;0.70;99.90;;;0.68;100.00;102073.81;5071842;28;20415;-73
2023/05/03 04:23:32;;;;;;;19.15;7.55;;;0.70;99.90;;;0.82;100.00;102080.84;5065291;28;20033;-73
2023/05/03 04:25:58;;;;;;;15.63;7.90;;;0.80;99.90;;;0.88;100.00;102089.38;5065150;28;20054;-73
2023/05/03 04:28:25;;;;;;;16.60;8.05;;;0.90;99.90;;;0.88;100.00;102075.94;5070771;28;20044;-73
2023/05/03 04:30:52;;;;;;;11.60;7.30;;;0.90;99.90;;;0.92;100.00;102089.03;5074356;28;20047;-73
2023/05/03 04:33:22;;;;;;;18.63;8.13;;;0.90;99.90;;;0.87;100.00;102085.88;5071546;28;20051;-73
2023/05/03 04:35:52;;;;;;;16.85;7.95;;;0.90;99.90;;;0.89;100.00;102091.09;5058938;28;20127;-73
2023/05/03 04:38:18;;;;;;;17.75;8.55;;;0.90;99.90;;;0.88;100.00;102089.38;5039135;28;20478;-74
2023/05/03 04:40:45;;;;;;;13.43;7.32;;;0.90;99.90;;;0.99;100.00;102101.03;5061937;28;20036;-73
2023/05/03 04:43:11;;;;;;;18.48;7.95;;;1.00;99.90;;;1.13;100.00;102097.28;5076268;28;20040;-73
2023/05/03 04:45:41;;;;;;;18.73;9.45;;;1.10;99.90;;;1.18;100.00;102096.94;5059350;28;20101;-73
2023/05/03 04:48:11;;;;;;;14.95;8.73;;;1.20;99.90;;;1.25;100.00;102092.78;5080663;28;20388;-73
2023/05/03 04:50:36;;;;;;;16.73;8.05;;;1.30;99.90;;;1.28;100.00;102094.38;5078110;28;20048;-73
2023/05/03 04:53:03;;;;;;;19.67;9.27;;;1.30;99.90;;;1.29;100.00;102113.06;5078084;28;20036;-73
2023/05/03 04:55:32;;;;;;;19.42;9.15;;;1.40;99.90;;;1.37;100.00;102112.47;5060051;28;20032;-73
2023/05/03 04:57:58;;;;;;;15.95;8.65;;;1.40;99.90;;;1.48;100.00;102114.31;5053862;28;20392;-73
2023/05/03 05:00:24;;;;;;;18.73;9.18;;;1.40;99.90;;;1.57;100.00;102118.13;5071158;28;20042;-73
2023/05/03 05:02:57;;;;;;;20.55;10.70;;;1.50;99.90;;;1.64;100.00;102113.13;5053253;28;20064;-73
2023/05/03 05:05:24;;;;;;;22.33;10.00;;;1.60;99.90;;;1.72;100.00;102116.06;5067393;28;20488;-73
2023/05/03 05:07:50;;;;;;;21.70;9.98;;;1.70;99.90;;;1.81;100.00;102107.22;5077899;28;20037;-73
2023/05/03 05:10:18;;;;;;;22.80;10.30;;;1.80;99.90;;;1.92;100.00;102105.53;5071815;28;20047;-73
2023/05/03 05:12:44;;;;;;;22.67;10.57;;;1.90;99.90;;;2.13;100.00;102119.94;5056732;28;20032;-73
2023/05/03 05:15:11;;;;;;;21.73;10.25;;;2.00;99.90;;;2.22;100.00;102109.41;5054820;28;20425;-73
2023/05/03 05:17:38;;;;;;;26.98;11.15;;;2.20;99.90;;;2.43;100.00;102112.16;5064349;28;20106;-73
2023/05/03 05:20:11;;;;;;;27.45;11.35;;;2.30;99.90;;;2.59;100.00;102128.75;5062546;28;20499;-73
2023/05/03 05:22:38;;;;;;;29.08;11.55;;;2.50;99.90;;;2.72;100.00;102116.94;5064434;28;20085;-73
2023/05/03 05:25:06;;;;;;;29.95;12.25;;;2.70;99.90;;;2.90;100.00;102117.22;5058855;28;20119;-73
2023/05/03 05:27:33;;;;;;;;;;;2.80;99.90;;;3.12;100.00;102131.56;5081666;28;20040;-73
2023/05/03 05:29:59;;;;;;;25.50;11.25;;;2.90;99.90;;;3.26;100.00;102136.66;5054964;28;19917;-73
2023/05/03 05:32:25;;;;;;;24.67;11.55;;;3.10;99.90;;;3.40;100.00;102132.78;5072922;28;20468;-73
2023/05/03 05:34:54;;;;;;;29.58;12.30;;;3.30;99.90;;;3.57;100.00;102141.22;5070911;28;20024;-73
2023/05/03 05:37:23;;;;;;;30.15;12.93;;;3.40;99.90;;;3.78;100.00;102146.59;5057699;28;20620;-73
2023/05/03 05:39:50;;;;;;;30.42;13.25;;;3.50;99.90;;;3.93;100.00;102154.31;5087207;28;20060;-73
2023/05/03 05:42:18;;;;;;;28.90;13.05;;;3.70;99.90;;;4.14;100.00;102156.97;5056480;28;20028;-73
2023/05/03 05:44:44;;;;;;;29.90;13.43;;;3.90;99.90;;;4.31;100.00;102161.69;5059503;28;20047;-73
2023/05/03 05:47:11;;;;;;;28.38;13.85;;;4.10;99.90;;;4.47;100.00;102165.72;5061576;28;20535;-73
2023/05/03 05:49:38;;;;;;;30.40;13.43;;;4.20;99.90;;;4.65;100.00;102173.16;5069701;28;20044;-74
2023/05/03 05:52:04;;;;;;;36.53;13.65;;;4.40;99.90;;;4.85;100.00;102169.47;5074554;28;20037;-73
2023/05/03 05:54:31;;;;;;;30.13;13.32;;;4.50;99.90;;;5.01;100.00;102177.00;5089173;28;20423;-73
2023/05/03 05:56:58;;;;;;;27.58;12.48;;;4.70;99.90;;;5.10;100.00;102172.59;5065398;28;20089;-73
2023/05/03 05:59:24;;;;;;;27.92;13.15;;;4.80;99.90;;;5.28;100.00;102166.47;5073089;28;20040;-73
2023/05/03 06:01:50;;;;;;;24.90;12.40;;;5.00;99.90;;;5.46;100.00;102167.44;5066061;28;20036;-73
2023/05/03 06:04:18;;;;;;;23.25;11.15;;;5.10;99.90;;;5.55;100.00;102173.81;5061714;28;20427;-73
2023/05/03 06:06:44;;;;;;;24.15;10.90;;;5.20;99.90;;;5.60;100.00;102171.53;5092925;28;20032;-73
2023/05/03 06:09:09;;;;;;;20.80;10.60;;;5.30;99.90;;;5.80;100.00;102168.75;5059028;28;20040;-73
2023/05/03 06:11:37;;;;;;;21.30;10.95;;;5.40;99.90;;;5.97;100.00;102169.88;5081335;28;20060;-73
2023/05/03 06:14:03;;;;;;;24.10;10.90;;;5.60;99.90;;;6.08;100.00;102157.97;5073939;28;20488;-73
2023/05/03 06:16:30;;;;;;;17.63;7.82;;;5.80;99.90;;;5.99;100.00;102142.59;5064414;28;20082;-73
2023/05/03 06:18:56;;;;;;;19.58;7.40;;;5.80;99.90;;;6.21;100.00;102137.81;5065631;28;20037;-73
2023/05/03 06:21:21;;;;;;;19.70;6.93;;;6.00;99.90;;;6.10;100.00;102133.47;5082308;28;20050;-74
2023/05/03 06:23:47;;;;;;;17.98;6.38;;;6.10;99.90;;;6.32;100.00;102129.47;5063742;28;20036;-73
2023/05/03 06:26:16;;;;;;;16.23;7.10;;;6.30;99.90;;;6.56;100.00;102141.59;5059525;28;20044;-74
2023/05/03 06:28:44;;;;;;;23.52;6.57;;;6.40;99.90;;;6.50;100.00;102143.06;5073838;28;20392;-75
2023/05/03 06:31:11;;;;;;;16.40;6.28;;;6.60;99.90;;;6.71;98.70;102139.19;5058546;28;20039;-74
2023/05/03 06:33:37;;;;;;;19.52;6.22;;;6.70;99.90;;;6.90;96.94;102146.34;5062659;28;20372;-73
2023/05/03 06:36:03;;;;;;;18.48;5.90;;;6.90;99.90;;;7.14;96.51;102131.25;5065597;28;20036;-73
2023/05/03 06:38:29;;;;;;;19.60;5.70;;;7.10;99.90;;;7.10;89.73;102133.44;5081117;28;20456;-74
2023/05/03 06:40:55;;;;;;;17.60;5.07;;;7.20;99.90;;;7.30;88.28;102123.25;5061756;28;20353;-74
2023/05/03 06:43:21;;;;;;;13.38;4.70;;;7.30;99.90;;;7.07;83.88;102128.34;5085627;28;20046;-74
2023/05/03 06:45:59;;;;;;;19.33;4.80;;;7.40;99.90;;;7.12;83.35;102119.69;5068464;28;20036;-74
2023/05/03 06:48:26;;;;;;;17.70;4.35;;;7.50;99.90;;;7.26;81.67;102121.00;5073792;28;20125;-74
2023/05/03 06:50:52;;;;;;;12.55;4.45;;;7.50;99.90;;;7.59;81.84;102129.38;5056587;28;20028;-74
2023/05/03 06:53:17;;;;;;;13.80;5.65;;;7.70;99.90;;;7.49;79.18;102118.63;5055883;28;20074;-74
2023/05/03 06:55:44;;;;;;;10.18;4.70;;;7.80;99.90;;;7.68;78.86;102119.38;5084028;28;20062;-74
2023/05/03 06:58:10;;;;;;;15.33;5.40;;;7.80;99.90;;;7.87;80.69;102113.72;5085370;28;20074;-74
2023/05/03 07:00:39;;;;;;;7.03;2.70;;;8.00;99.90;;;7.79;73.50;102113.69;5053404;28;20271;-74
2023/05/03 07:03:05;;;;;;;9.52;2.28;;;8.20;99.90;;;7.89;65.67;102092.66;5067163;28;20515;-74
2023/05/03 07:05:31;;;;;;;9.95;2.58;;;8.20;99.90;;;8.29;66.66;102101.13;5091554;28;20181;-74
2023/05/03 07:07:57;;;;;;;7.97;2.30;;;8.30;99.90;;;8.43;64.12;102102.34;5057975;28;20032;-74
2023/05/03 07:10:24;;;;;;;7.45;2.55;;;8.50;99.90;;;8.37;63.31;102091.31;5081212;28;20910;-75
2023/05/03 07:12:50;;;;;;;8.18;3.00;;;8.80;99.90;;;8.73;64.86;102113.63;5076624;28;20116;-73
2023/05/03 07:15:16;;;;;;;9.70;2.20;;;8.90;99.90;;;8.72;61.24;102094.78;5085386;28;20044;-74
2023/05/03 07:17:41;;;;;;;8.25;1.80;;;9.00;99.90;;;9.26;59.82;102094.22;5079082;28;20045;-74
2023/05/03 07:20:08;;;;;;;5.50;1.80;;;9.30;99.90;;;9.57;60.60;102101.66;5090826;28;20449;-75
2023/05/03 07:22:33;;;;;;;4.55;1.50;;;9.70;99.90;;;9.99;61.40;102094.19;5080294;28;20115;-73
2023/05/03 07:24:59;;;;;;;5.43;1.42;;;10.10;99.90;;;10.19;57.66;102080.94;5077345;28;20039;-74
2023/05/03 07:27:25;;;;;;;5.43;1.60;;;10.30;99.90;;;9.49;54.70;102077.16;5065273;28;20090;-75
2023/05/03 07:29:51;;;;;;;7.07;1.60;;;10.20;97.30;;;9.00;54.25;102080.81;5090165;28;20036;-75
2023/05/03 07:32:17;;;;;;;4.78;1.40;;;9.80;96.40;;;9.07;54.53;102076.38;5060648;28;20450;-74
2023/05/03 07:34:43;;;;;;;5.07;1.42;;;9.80;96.60;;;9.25;54.71;102076.19;5084328;28;20041;-74
2023/05/03 07:37:08;;;;;;;6.72;1.27;;;9.80;97.00;;;9.65;55.83;102081.69;5084662;28;20391;-76
2023/05/03 07:39:35;;;;;;;5.63;1.30;;;10.00;98.20;;;10.62;56.01;102090.63;5055739;28;20028;-74
2023/05/03 07:42:01;;;;;;;7.68;1.30;;;10.60;99.20;;;11.18;54.63;102076.63;5055785;28;20369;-75
2023/05/03 07:44:26;;;;;;;4.85;1.80;;;11.30;97.70;;;11.56;51.98;102075.72;5081717;28;20058;-75
2023/05/03 07:46:52;;;;;;;6.18;1.50;;;11.60;95.90;;;11.56;50.39;102070.25;5058232;28;20040;-73
2023/05/03 07:49:18;;;;;;;5.28;1.25;;;11.70;94.00;;;11.61;48.24;102040.47;5083512;28;20032;-74
2023/05/03 07:51:44;;;;;;;3.45;1.15;;;11.90;92.10;;;11.51;49.63;102059.88;5055718;28;20087;-75
2023/05/03 07:54:09;;;;;;;4.40;1.20;;;11.90;92.50;;;11.65;50.90;102063.63;5089856;28;20428;-75
2023/05/03 07:56:35;;;;;;;4.50;1.27;;;12.00;93.30;;;11.87;50.36;102063.72;5072025;28;20032;-75
2023/05/03 07:59:01;;;;;;;5.50;1.20;;;12.10;92.80;;;12.07;48.41;102055.81;5083922;28;20029;-75
2023/05/03 08:01:27;;;;;;;4.57;1.25;;;12.20;91.30;;;12.45;47.51;102054.72;5089512;28;20165;-75
2023/05/03 08:03:53;;;;;;;3.85;1.17;;;12.50;91.00;;;12.64;48.71;102061.44;5084050;28;20475;-74
2023/05/03 08:06:19;;;;;;;6.57;1.50;;;12.70;91.50;;;12.75;47.80;102057.34;5086964;28;20120;-75
2023/05/03 08:08:44;;;;;;;4.72;1.38;;;12.90;90.80;;;11.99;45.64;102030.44;5083787;28;20054;-77
2023/05/03 08:11:10;;;;;;;6.05;1.27;;;12.90;84.60;;;11.34;47.00;102052.91;5089909;28;20032;-74
2023/05/03 08:13:36;;;;;;;5.25;1.33;;;12.60;84.80;;;12.04;48.58;102066.28;5087288;28;20456;-75
2023/05/03 08:16:03;;;;;;;4.82;1.25;;;12.60;89.40;;;12.34;47.19;102052.50;5054619;28;20033;-74
2023/05/03 08:18:29;;;;;;;5.63;1.70;;;12.70;87.90;;;11.99;46.60;102050.41;5089749;28;20059;-75
2023/05/03 08:20:55;;;;;;;4.85;1.27;;;12.70;85.70;;;11.71;47.62;102055.75;5068848;28;20209;-75
2023/05/03 08:23:21;;;;;;;4.13;1.30;;;12.40;87.40;;;11.68;47.78;102065.16;5088344;28;20033;-74
2023/05/03 08:25:47;;;;;;;5.57;1.30;;;12.10;88.60;;;11.36;46.22;102062.59;5080600;28;20036;-74
2023/05/03 08:28:13;;;;;;;6.03;1.48;;;11.90;85.30;;;11.09;48.16;102055.91;5078239;28;20040;-76
2023/05/03 08:30:40;;;;;;;7.82;1.30;;;11.80;88.80;;;11.44;49.52;102078.06;5062467;28;20400;-75
2023/05/03 08:33:08;;;;;;;5.03;1.27;;;11.80;91.20;;;11.50;48.27;102049.16;5080047;28;20052;-75
2023/05/03 08:35:34;;;;;;;5.85;1.42;;;11.90;89.80;;;11.80;47.66;102051.84;5086906;28;20039;-75
2023/05/03 08:38:00;;;;;;;6.25;1.35;;;12.10;88.90;;;12.41;46.14;102061.63;5069313;28;20123;-75
2023/05/03 08:40:28;;;;;;;5.60;1.40;;;12.40;87.10;;;12.26;44.71;102047.16;5076221;28;20468;-75
2023/05/03 08:42:58;;;;;;;3.83;1.15;;;12.70;84.00;;;12.40;48.12;102067.31;5060927;28;20041;-76
2023/05/03 08:45:25;;;;;;;5.10;1.27;;;12.80;89.80;;;12.97;44.43;102053.72;5055723;28;20132;-75
2023/05/03 08:47:54;;;;;;;7.03;1.30;;;13.10;84.40;;;13.03;44.81;102053.78;5055165;28;20052;-76
2023/05/03 08:50:20;;;;;;;5.78;1.40;;;13.30;84.70;;;13.40;43.31;102047.25;5083286;28;20036;-75
2023/05/03 08:52:46;;;;;;;5.88;1.40;;;13.50;81.50;;;13.25;43.71;102045.47;5089451;28;20032;-76
2023/05/03 08:55:12;;;;;;;3.47;1.20;;;13.60;81.70;;;12.73;44.79;102053.97;5089860;28;20043;-76
2023/05/03 08:57:38;;;;;;;3.63;1.10;;;13.50;82.50;;;12.55;45.82;102065.34;5082941;28;20380;-77
2023/05/03 09:00:09;;;;;;;5.63;1.30;;;13.20;84.10;;;13.04;44.60;102049.13;5058010;28;20365;-74
2023/05/03 09:02:37;;;;;;;4.07;1.15;;;13.30;83.00;;;13.49;43.35;102057.03;5074812;28;20043;-75
2023/05/03 09:05:25;;;;;;;3.20;1.20;;;13.60;81.40;;;14.02;43.28;102050.09;5081485;28;20062;-75
2023/05/03 09:08:09;;;;;;;5.15;1.20;;;14.00;82.20;;;14.55;41.80;102041.16;5074511;28;20056;-76
2023/05/03 09:10:41;;;;;;;5.88;1.33;;;14.50;79.00;;;14.71;41.93;102044.56;5057463;28;20404;-76
2023/05/03 09:13:10;;;;;;;3.15;1.00;;;14.80;79.00;;;15.01;41.56;102030.44;5047570;28;20039;-76
2023/05/03 09:15:36;;;;;;;6.35;1.40;;;15.10;78.70;;;14.93;40.21;102032.31;5072587;28;20123;-76
2023/05/03 09:18:19;;;;;;;4.65;1.15;;;15.30;75.00;;;14.73;41.45;102031.50;5080651;28;20493;-76
2023/05/03 09:20:50;;;;;;;3.65;1.08;;;15.10;77.20;;;14.92;40.08;102019.63;5058220;28;20055;-76
2023/05/03 09:23:30;;;;;;;3.92;1.30;;;15.20;75.60;;;15.22;40.03;102026.59;5088887;28;20050;-76
2023/05/03 09:25:57;;;;;;;4.50;1.33;;;15.30;75.50;;;14.47;39.09;102017.50;5089048;28;20429;-75
2023/05/03 09:28:23;;;;;;;4.20;1.42;;;14.90;72.40;;;14.57;41.49;102027.22;5083695;28;20453;-75
2023/05/03 09:31:03;;;;;;;5.97;1.10;;;14.90;76.80;;;14.62;40.28;102021.97;5091434;28;20028;-76
2023/05/03 09:33:29;;;;;;;6.03;1.48;;;15.00;76.90;;;13.53;39.27;102009.00;5082088;28;20044;-75
2023/05/03 09:36:01;;;;;;;7.40;1.52;;;14.50;71.40;;;13.06;39.81;102025.97;5079021;28;20150;-74
2023/05/03 09:38:32;;;;;;;4.25;1.40;;;14.10;72.10;;;13.63;40.77;102031.41;5057544;28;20523;-75
2023/05/03 09:40:58;;;;;;;2.80;1.10;;;13.90;74.70;;;13.92;41.88;102042.25;5081559;28;20437;-75
2023/05/03 09:43:24;;;;;;;4.35;1.20;;;14.20;76.60;;;14.18;42.12;102054.38;5092445;28;20040;-76
2023/05/03 09:45:51;;;;;;;4.65;1.20;;;14.50;76.90;;;14.81;41.96;102051.34;5057149;28;20043;-75
2023/05/03 09:48:22;;;;;;;3.20;1.20;;;14.80;77.60;;;15.36;39.39;102041.97;5089725;28;20032;-76
2023/05/03 09:50:48;;;;;;;5.03;1.45;;;15.30;74.20;;;15.80;37.91;102030.41;5070782;28;20040;-75
2023/05/03 09:53:18;;;;;;;6.15;1.50;;;15.70;72.40;;;15.56;36.68;101986.06;5080249;28;20064;-75
2023/05/03 09:55:44;;;;;;;5.47;1.40;;;15.80;69.70;;;14.35;38.88;102027.41;5079039;28;20032;-75
2023/05/03 09:58:10;;;;;;;6.22;1.40;;;15.10;70.70;;;14.66;37.42;102017.72;5080545;28;20047;-75
2023/05/03 10:00:42;;;;;;;5.47;1.50;;;15.30;69.10;;;13.99;38.79;102017.59;5091558;28;20032;-73
2023/05/03 10:03:19;;;;;;;5.55;1.67;;;14.80;70.30;;;14.39;38.96;102012.22;5086361;28;20039;-74
2023/05/03 10:05:50;;;;;;;5.90;1.20;;;14.60;71.30;;;15.00;38.87;102031.50;5092233;28;20043;-74
2023/05/03 10:08:31;;;;;;;3.72;1.30;;;14.90;72.40;;;15.14;37.46;102015.81;5077533;28;20145;-74
2023/05/03 10:10:57;;;;;;;4.35;1.60;;;15.60;69.30;;;13.88;38.60;102013.56;5058382;28;20410;-74
2023/05/03 10:13:24;;;;;;;4.35;1.20;;;;;;;15.93;36.58;102005.63;5089979;28;20036;-74
2023/05/03 10:16:02;;;;;;;6.32;1.50;;;15.60;66.60;;;16.29;37.85;102024.47;5086296;28;20036;-76
2023/05/03 10:18:33;;;;;;;5.63;1.30;;;17.90;65.50;;;18.71;33.83;102001.59;5062973;28;20283;-75